createdAt,value
2023-05-20T06:36:36.508Z,9.430361
2023-05-20T06:37:36.448Z,9.430339
2023-05-20T06:38:36.479Z,9.430345
2023-05-20T06:39:36.450Z,9.430338
2023-05-20T06:40:36.409Z,9.430372
2023-05-20T06:41:36.415Z,9.430383
2023-05-20T06:42:36.539Z,9.430369
2023-05-20T06:43:36.406Z,9.430362
2023-05-20T06:44:36.581Z,9.430343
2023-05-20T06:45:37.397Z,9.430348
2023-05-20T06:46:36.462Z,9.430384
2023-05-20T06:47:36.448Z,9.430371
2023-05-20T06:48:36.338Z,9.430378
2023-05-20T06:49:36.364Z,9.430360
2023-05-20T06:50:36.304Z,9.430373
2023-05-20T06:51:36.341Z,9.430376
2023-05-20T06:52:36.305Z,9.430393
2023-05-20T06:53:36.298Z,9.430347
2023-05-20T06:54:36.266Z,9.430325
2023-05-20T06:55:36.565Z,9.430344
2023-05-20T06:56:36.242Z,9.430359
2023-05-20T06:57:36.213Z,9.430388
2023-05-20T06:58:36.238Z,9.430370
2023-05-20T06:59:36.211Z,9.430383
2023-05-20T07:00:37.112Z,9.430344
2023-05-20T07:01:36.266Z,9.430352
2023-05-20T07:02:40.457Z,9.430390
2023-05-20T07:03:36.215Z,9.430379
2023-05-20T07:04:36.163Z,9.430320
2023-05-20T07:05:36.370Z,9.430326
2023-05-20T07:06:38.197Z,9.430373
2023-05-20T07:07:36.129Z,9.430364
2023-05-20T07:08:36.129Z,9.430362
2023-05-20T07:09:36.103Z,9.430387
2023-05-20T07:10:36.693Z,9.430385
2023-05-20T07:11:36.155Z,9.430382
2023-05-20T07:12:36.901Z,9.430376
2023-05-20T07:13:37.129Z,9.430350
2023-05-20T07:15:08.469Z,9.430370
2023-05-20T07:15:36.370Z,9.430382
2023-05-20T07:17:08.443Z,9.430354
2023-05-20T07:17:36.146Z,9.430371
2023-05-20T07:18:36.151Z,9.430366
2023-05-20T07:19:35.993Z,9.430367
2023-05-20T07:20:35.985Z,9.430378
2023-05-20T07:21:35.980Z,9.430348
2023-05-20T07:22:35.942Z,9.430371
2023-05-20T07:23:35.940Z,9.430357
2023-05-20T07:24:35.984Z,9.430415
2023-05-20T07:25:36.070Z,9.430416
2023-05-20T07:26:35.929Z,9.430444
2023-05-20T07:27:35.912Z,9.430386
2023-05-20T07:28:35.877Z,9.430352
2023-05-20T07:29:35.895Z,9.430387
2023-05-20T07:30:35.894Z,9.430387
2023-05-20T07:31:35.929Z,9.430392
2023-05-20T07:32:36.673Z,9.430448
2023-05-20T07:33:35.802Z,9.430371
2023-05-20T07:34:35.825Z,9.430365
2023-05-20T07:35:36.162Z,9.430368
2023-05-20T07:36:35.766Z,9.430359
2023-05-20T07:37:35.781Z,9.430361
2023-05-20T07:38:35.782Z,9.430358
2023-05-20T07:39:35.737Z,9.430347
2023-05-20T07:40:35.861Z,9.430338
2023-05-20T07:41:35.987Z,9.430341
2023-05-20T07:42:35.750Z,9.430347
2023-05-20T07:43:36.523Z,9.430353
2023-05-20T07:44:35.692Z,9.430367
2023-05-20T07:45:35.972Z,9.430313
2023-05-20T07:46:35.875Z,9.430331
2023-05-20T07:47:35.724Z,9.430356
2023-05-20T07:48:35.664Z,9.430322
2023-05-20T07:49:35.683Z,9.430335
2023-05-20T07:50:35.633Z,9.430346
2023-05-20T07:51:35.623Z,9.430341
2023-05-20T07:52:44.049Z,9.430343
2023-05-20T07:53:37.625Z,9.430364
2023-05-20T07:54:35.607Z,9.430337
2023-05-20T07:55:35.841Z,9.430363
2023-05-20T07:56:35.569Z,9.430320
2023-05-20T07:57:35.540Z,9.430319
2023-05-20T07:58:35.521Z,9.430314
2023-05-20T07:59:35.506Z,9.430352
2023-05-20T08:00:35.510Z,9.430345
2023-05-20T08:01:35.660Z,9.430350
2023-05-20T08:02:35.579Z,9.430342
2023-05-20T08:03:35.555Z,9.430337
2023-05-20T08:04:35.603Z,9.430346
2023-05-20T08:05:35.687Z,9.430324
2023-05-20T08:06:35.458Z,9.430306
2023-05-20T08:07:35.436Z,9.430292
2023-05-20T08:08:35.461Z,9.430315
2023-05-20T08:09:35.405Z,9.430306
2023-05-20T08:10:35.432Z,9.430324
2023-05-20T08:11:36.446Z,9.430349
2023-05-20T08:12:35.438Z,9.430331
2023-05-20T08:13:35.413Z,9.430330
2023-05-20T08:14:35.396Z,9.430304
2023-05-20T08:15:35.488Z,9.430330
2023-05-20T08:16:35.394Z,9.430339
2023-05-20T08:17:35.471Z,9.430324
2023-05-20T08:18:35.361Z,9.430332
2023-05-20T08:19:35.452Z,9.430347
2023-05-20T08:20:35.297Z,9.430305
2023-05-20T08:21:35.279Z,9.430272
2023-05-20T08:22:35.308Z,9.430353
2023-05-20T08:23:37.972Z,9.430347
2023-05-20T08:24:36.257Z,9.430332
2023-05-20T08:25:35.484Z,9.430359
2023-05-20T08:26:35.221Z,9.430355
2023-05-20T08:27:35.193Z,9.430333
2023-05-20T08:28:35.185Z,9.430330
2023-05-20T08:29:35.217Z,9.430303
2023-05-20T08:30:35.209Z,9.430315
2023-05-20T08:31:35.203Z,9.430322
2023-05-20T08:32:36.176Z,9.430340
2023-05-20T08:33:35.146Z,9.430320
2023-05-20T08:34:35.195Z,9.430319
2023-05-20T08:35:35.313Z,9.430326
2023-05-20T08:36:35.074Z,9.430296
2023-05-20T08:37:35.089Z,9.430315
2023-05-20T08:38:35.086Z,9.430332
2023-05-20T08:39:35.094Z,9.430321
2023-05-20T08:40:35.088Z,9.430329
2023-05-20T08:41:35.082Z,9.430319
2023-05-20T08:42:35.073Z,9.430325
2023-05-20T08:43:35.029Z,9.430310
2023-05-20T08:44:35.061Z,9.430287
2023-05-20T08:45:35.208Z,9.430305
2023-05-20T08:46:35.107Z,9.430317
2023-05-20T08:47:35.025Z,9.430336
2023-05-20T08:48:34.965Z,9.430355
2023-05-20T08:49:35.000Z,9.430327
2023-05-20T08:50:34.977Z,9.430304
2023-05-20T08:51:34.936Z,9.430301
2023-05-20T08:52:35.017Z,9.430326
2023-05-20T08:53:34.916Z,9.430302
2023-05-20T08:54:34.942Z,9.430292
2023-05-20T08:55:35.200Z,9.430306
2023-05-20T08:56:34.877Z,9.430295
2023-05-20T08:57:34.892Z,9.430285
2023-05-20T08:58:34.861Z,9.430305
2023-05-20T08:59:34.966Z,9.430295
2023-05-20T09:00:34.915Z,9.430290
2023-05-20T09:01:34.899Z,9.430318
2023-05-20T09:02:34.911Z,9.430274
2023-05-20T09:03:34.804Z,9.430262
2023-05-20T09:04:34.876Z,9.430298
2023-05-20T09:05:35.006Z,9.430320
2023-05-20T09:06:34.807Z,9.430326
2023-05-20T09:07:34.742Z,9.430310
2023-05-20T09:08:34.805Z,9.430367
2023-05-20T09:09:34.763Z,9.430374
2023-05-20T09:10:34.746Z,9.430277
2023-05-20T09:11:34.764Z,9.430326
2023-05-20T09:12:34.888Z,9.430330
2023-05-20T09:13:34.807Z,9.430273
2023-05-20T09:14:34.723Z,9.430305
2023-05-20T09:15:35.048Z,9.430326
2023-05-20T09:16:34.730Z,9.430338
2023-05-20T09:17:34.748Z,9.430346
2023-05-20T09:18:34.716Z,9.430363
2023-05-20T09:19:34.781Z,9.430342
2023-05-20T09:20:34.758Z,9.430312
2023-05-20T09:21:34.682Z,9.430341
2023-05-20T09:22:34.916Z,9.430361
2023-05-20T09:23:34.647Z,9.430348
2023-05-20T09:24:34.597Z,9.430307
2023-05-20T09:25:34.922Z,9.430322
2023-05-20T09:26:34.663Z,9.430376
2023-05-20T09:27:34.690Z,9.430355
2023-05-20T09:28:34.561Z,9.430408
2023-05-20T09:29:35.666Z,9.430392
2023-05-20T09:30:34.531Z,9.430371
2023-05-20T09:31:34.536Z,9.430413
2023-05-20T09:32:34.568Z,9.430384
2023-05-20T09:33:35.028Z,9.430344
2023-05-20T09:34:34.505Z,9.430381
2023-05-20T09:35:34.650Z,9.430384
2023-05-20T09:36:34.457Z,9.430389
2023-05-20T09:37:34.452Z,9.430356
2023-05-20T09:38:34.505Z,9.430342
2023-05-20T09:39:34.398Z,9.430361
2023-05-20T09:40:35.350Z,9.430369
2023-05-20T09:41:34.498Z,9.430367
2023-05-20T09:42:34.512Z,9.430349
2023-05-20T09:43:34.564Z,9.430334
2023-05-20T09:44:34.371Z,9.430326
2023-05-20T09:45:34.618Z,9.430345
2023-05-20T09:46:34.370Z,9.430350
2023-05-20T09:47:34.398Z,9.430365
2023-05-20T09:48:34.461Z,9.430312
2023-05-20T09:49:34.292Z,9.430310
2023-05-20T09:50:34.323Z,9.430312
2023-05-20T09:51:34.425Z,9.430305
2023-05-20T09:52:34.292Z,9.430340
2023-05-20T09:53:34.298Z,9.430338
2023-05-20T09:54:34.324Z,9.430326
2023-05-20T09:55:34.560Z,9.430321
2023-05-20T09:56:35.132Z,9.430341
2023-05-20T09:57:34.305Z,9.430359
2023-05-20T09:58:34.230Z,9.430343
2023-05-20T09:59:34.194Z,9.430348
2023-05-20T10:00:34.248Z,9.430338
2023-05-20T10:01:34.343Z,9.430353
2023-05-20T10:02:34.294Z,9.430353
2023-05-20T10:03:35.484Z,9.430316
2023-05-20T10:04:34.231Z,9.430317
2023-05-20T10:05:34.523Z,9.430287
2023-05-20T10:06:34.173Z,9.430284
2023-05-20T10:07:41.380Z,9.430293
2023-05-20T10:08:36.142Z,9.430345
2023-05-20T10:09:34.140Z,9.430359
2023-05-20T10:10:34.144Z,9.430335
2023-05-20T10:11:34.109Z,9.430338
2023-05-20T10:12:34.078Z,9.430346
2023-05-20T10:13:34.055Z,9.430346
2023-05-20T10:14:34.029Z,9.430296
2023-05-20T10:15:34.342Z,9.430316
2023-05-20T10:16:34.074Z,9.430326
2023-05-20T10:17:43.522Z,9.430341
2023-05-20T10:18:41.777Z,9.430371
2023-05-20T10:19:36.798Z,9.430323
2023-05-20T10:20:34.051Z,9.430317
2023-05-20T10:22:09.279Z,9.430381
2023-05-20T10:23:08.670Z,9.430396
2023-05-20T10:23:35.121Z,9.430382
2023-05-20T10:25:07.382Z,9.430369
2023-05-20T10:25:34.339Z,9.430352
2023-05-20T10:26:33.993Z,9.430373
2023-05-20T10:27:33.917Z,9.430375
2023-05-20T10:28:33.955Z,9.430377
2023-05-20T10:29:33.880Z,9.430372
2023-05-20T10:30:33.960Z,9.430413
2023-05-20T10:31:33.931Z,9.430387
2023-05-20T10:32:33.908Z,9.430346
2023-05-20T10:33:33.882Z,9.430316
2023-05-20T10:34:34.822Z,9.430351
2023-05-20T10:35:33.838Z,9.430348
2023-05-20T10:36:33.779Z,9.430363
2023-05-20T10:37:34.088Z,9.430355
2023-05-20T10:38:33.803Z,9.430334
2023-05-20T10:39:33.771Z,9.430363
2023-05-20T10:40:34.956Z,9.430369
2023-05-20T10:41:33.745Z,9.430334
2023-05-20T10:42:34.825Z,9.430311
2023-05-20T10:43:33.740Z,9.430346
2023-05-20T10:44:34.757Z,9.430358
2023-05-20T10:45:33.778Z,9.430344
2023-05-20T10:46:44.176Z,9.430333
2023-05-20T10:47:36.003Z,9.430347
2023-05-20T10:48:33.783Z,9.430405
2023-05-20T10:49:33.702Z,9.430346
2023-05-20T10:50:33.897Z,9.430357
2023-05-20T10:51:33.713Z,9.430346
2023-05-20T10:52:33.630Z,9.430358
2023-05-20T10:53:34.702Z,9.430366
2023-05-20T10:54:34.586Z,9.430348
2023-05-20T10:55:33.935Z,9.430358
2023-05-20T10:56:33.532Z,9.430363
2023-05-20T10:57:33.672Z,9.430356
2023-05-20T10:58:33.788Z,9.430350
2023-05-20T10:59:33.852Z,9.430343
2023-05-20T11:00:33.984Z,9.430371
2023-05-20T11:01:33.621Z,9.430346
2023-05-20T11:02:33.646Z,9.430374
2023-05-20T11:03:33.574Z,9.430378
2023-05-20T11:04:33.643Z,9.430374
2023-05-20T11:05:33.508Z,9.430365
2023-05-20T11:06:33.466Z,9.430358
2023-05-20T11:07:33.616Z,9.430379
2023-05-20T11:08:33.453Z,9.430386
2023-05-20T11:09:33.419Z,9.430376
2023-05-20T11:10:33.546Z,9.430367
2023-05-20T11:11:33.393Z,9.430372
2023-05-20T11:12:33.416Z,9.430393
2023-05-20T11:13:34.122Z,9.430391
2023-05-20T11:14:33.385Z,9.430368
2023-05-20T11:15:33.501Z,9.430375
2023-05-20T11:16:33.398Z,9.430354
2023-05-20T11:17:33.672Z,9.430389
2023-05-20T11:18:33.373Z,9.430373
2023-05-20T11:19:33.395Z,9.430359
2023-05-20T11:20:33.529Z,9.430351
2023-05-20T11:21:33.263Z,9.430348
2023-05-20T11:22:34.295Z,9.430346
2023-05-20T11:23:33.290Z,9.430324
2023-05-20T11:24:33.270Z,9.430324
2023-05-20T11:25:33.549Z,9.430326
2023-05-20T11:26:33.307Z,9.430346
2023-05-20T11:27:33.627Z,9.430351
2023-05-20T11:28:33.282Z,9.430354
2023-05-20T11:29:33.327Z,9.430347
2023-05-20T11:30:33.557Z,9.430363
2023-05-20T11:31:37.056Z,9.430346
2023-05-20T11:32:34.180Z,9.430354
2023-05-20T11:33:33.128Z,9.430349
2023-05-20T11:34:33.167Z,9.430334
2023-05-20T11:35:33.204Z,9.430342
2023-05-20T11:36:33.140Z,9.430367
2023-05-20T11:37:33.150Z,9.430346
2023-05-20T11:38:33.147Z,9.430350
2023-05-20T11:39:33.122Z,9.430358
2023-05-20T11:40:42.601Z,9.430358
2023-05-20T11:41:35.101Z,9.430363
2023-05-20T11:42:33.060Z,9.430326
2023-05-20T11:43:33.126Z,9.430361
2023-05-20T11:44:33.117Z,9.430368
2023-05-20T11:45:33.046Z,9.430400
2023-05-20T11:46:33.106Z,9.430394
2023-05-20T11:47:33.160Z,9.430379
2023-05-20T11:48:33.042Z,9.430336
2023-05-20T11:49:32.999Z,9.430392
2023-05-20T11:50:33.290Z,9.430376
2023-05-20T11:51:32.985Z,9.430417
2023-05-20T11:52:32.942Z,9.430383
2023-05-20T11:53:33.010Z,9.430339
2023-05-20T11:54:32.917Z,9.430355
2023-05-20T11:55:32.953Z,9.430368
2023-05-20T11:56:32.926Z,9.430386
2023-05-20T11:57:32.907Z,9.430387
2023-05-20T11:58:32.954Z,9.430359
2023-05-20T11:59:33.018Z,9.430354
2023-05-20T12:00:46.774Z,9.430360
2023-05-20T12:01:34.836Z,9.430367
2023-05-20T12:02:32.924Z,9.430363
2023-05-20T12:03:33.389Z,9.430341
2023-05-20T12:04:32.883Z,9.430348
2023-05-20T12:05:32.797Z,9.430350
2023-05-20T12:06:32.940Z,9.430354
2023-05-20T12:07:32.773Z,9.430334
2023-05-20T12:08:33.801Z,9.430356
2023-05-20T12:09:32.829Z,9.430369
2023-05-20T12:10:32.888Z,9.430350
2023-05-20T12:11:32.896Z,9.430367
2023-05-20T12:12:32.845Z,9.430367
2023-05-20T12:13:34.957Z,9.430403
2023-05-20T12:14:33.261Z,9.430386
2023-05-20T12:15:32.755Z,9.430408
2023-05-20T12:16:32.906Z,9.430408
2023-05-20T12:17:32.727Z,9.430388
2023-05-20T12:18:32.711Z,9.430410
2023-05-20T12:19:33.797Z,9.430377
2023-05-20T12:20:33.399Z,9.430372
2023-05-20T12:21:32.598Z,9.430375
2023-05-20T12:22:32.665Z,9.430378
2023-05-20T12:23:32.841Z,9.430386
2023-05-20T12:24:32.797Z,9.430346
2023-05-20T12:25:32.721Z,9.430404
2023-05-20T12:26:32.583Z,9.430347
2023-05-20T12:27:32.989Z,9.430330
2023-05-20T12:28:32.596Z,9.430327
2023-05-20T12:29:32.575Z,9.430352
2023-05-20T12:30:32.669Z,9.430354
2023-05-20T12:31:34.635Z,9.430366
2023-05-20T12:32:33.577Z,9.430367
2023-05-20T12:33:32.516Z,9.430358
2023-05-20T12:34:32.538Z,9.430360
2023-05-20T12:35:32.468Z,9.430326
2023-05-20T12:36:32.467Z,9.430356
2023-05-20T12:37:32.750Z,9.430362
2023-05-20T12:38:32.568Z,9.430374
2023-05-20T12:39:32.466Z,9.430364
2023-05-20T12:40:32.549Z,9.430378
2023-05-20T12:41:32.537Z,9.430405
2023-05-20T12:42:34.313Z,9.430390
2023-05-20T12:43:32.861Z,9.430377
2023-05-20T12:44:32.342Z,9.430368
2023-05-20T12:45:32.366Z,9.430371
2023-05-20T12:46:32.365Z,9.430372
2023-05-20T12:47:32.356Z,9.430364
2023-05-20T12:48:32.344Z,9.430359
2023-05-20T12:49:32.400Z,9.430372
2023-05-20T12:50:32.333Z,9.430394
2023-05-20T12:51:32.292Z,9.430391
2023-05-20T12:52:32.511Z,9.430419
2023-05-20T12:53:34.383Z,9.430372
2023-05-20T12:54:33.102Z,9.430390
2023-05-20T12:55:32.337Z,9.430364
2023-05-20T12:56:32.331Z,9.430373
2023-05-20T12:57:32.217Z,9.430336
2023-05-20T12:58:32.744Z,9.430359
2023-05-20T12:59:32.198Z,9.430329
2023-05-20T13:00:32.171Z,9.430332
2023-05-20T13:01:32.335Z,9.430338
2023-05-20T13:02:32.231Z,9.430381
2023-05-20T13:03:32.205Z,9.430361
2023-05-20T13:04:32.164Z,9.430366
2023-05-20T13:05:32.128Z,9.430388
2023-05-20T13:06:32.133Z,9.430395
2023-05-20T13:07:32.091Z,9.430391
2023-05-20T13:08:32.149Z,9.430374
2023-05-20T13:09:32.073Z,9.430366
2023-05-20T13:10:32.132Z,9.430349
2023-05-20T13:11:32.106Z,9.430369
2023-05-20T13:12:33.005Z,9.430356
2023-05-20T13:13:32.057Z,9.430366
2023-05-20T13:14:32.785Z,9.430379
2023-05-20T13:15:32.065Z,9.430405
2023-05-20T13:16:31.992Z,9.430408
2023-05-20T13:17:32.185Z,9.430408
2023-05-20T13:18:31.964Z,9.430427
2023-05-20T13:19:32.086Z,9.430412
2023-05-20T13:20:32.067Z,9.430399
2023-05-20T13:21:31.937Z,9.430399
2023-05-20T13:22:31.928Z,9.430411
2023-05-20T13:23:31.993Z,9.430403
2023-05-20T13:24:31.934Z,9.430389
2023-05-20T13:25:31.956Z,9.430389
2023-05-20T13:26:31.982Z,9.430392
2023-05-20T13:27:31.834Z,9.430445
2023-05-20T13:28:31.826Z,9.430483
2023-05-20T13:29:31.933Z,9.430393
2023-05-20T13:30:31.852Z,9.430409
2023-05-20T13:31:31.897Z,9.430381
2023-05-20T13:32:31.823Z,9.430438
2023-05-20T13:33:32.695Z,9.430441
2023-05-20T13:34:31.771Z,9.430397
2023-05-20T13:35:31.952Z,9.430418
2023-05-20T13:36:31.769Z,9.430332
2023-05-20T13:37:31.924Z,9.430386
2023-05-20T13:38:31.782Z,9.430369
2023-05-20T13:39:31.759Z,9.430365
2023-05-20T13:40:31.837Z,9.430387
2023-05-20T13:41:31.709Z,9.430394
2023-05-20T13:42:31.867Z,9.430338
2023-05-20T13:43:31.689Z,9.430342
2023-05-20T13:44:32.668Z,9.430377
2023-05-20T13:45:31.679Z,9.430368
2023-05-20T13:46:31.951Z,9.430365
2023-05-20T13:47:31.673Z,9.430380
2023-05-20T13:48:31.732Z,9.430399
2023-05-20T13:49:31.623Z,9.430361
2023-05-20T13:50:31.649Z,9.430350
2023-05-20T13:51:31.667Z,9.430352
2023-05-20T13:52:31.674Z,9.430364
2023-05-20T13:53:31.653Z,9.430359
2023-05-20T13:54:31.596Z,9.430334
2023-05-20T13:55:32.546Z,9.430290
2023-05-20T13:56:31.592Z,9.430334
2023-05-20T13:57:31.549Z,9.430356
2023-05-20T13:58:31.659Z,9.430388
2023-05-20T13:59:31.662Z,9.430362
2023-05-20T14:00:31.486Z,9.430365
2023-05-20T14:01:31.689Z,9.430369
2023-05-20T14:02:31.668Z,9.430355
2023-05-20T14:03:31.574Z,9.430357
2023-05-20T14:04:31.567Z,9.430347
2023-05-20T14:05:31.442Z,9.430323
2023-05-20T14:06:31.421Z,9.430373
2023-05-20T14:07:31.564Z,9.430363
2023-05-20T14:08:31.441Z,9.430374
2023-05-20T14:09:32.609Z,9.430364
2023-05-20T14:10:31.438Z,9.430346
2023-05-20T14:11:31.388Z,9.430305
2023-05-20T14:12:32.403Z,9.430353
2023-05-20T14:13:31.369Z,9.430358
2023-05-20T14:14:31.399Z,9.430382
2023-05-20T14:15:31.382Z,9.430398
2023-05-20T14:16:31.490Z,9.430420
2023-05-20T14:17:31.475Z,9.430412
2023-05-20T14:18:31.398Z,9.430403
2023-05-20T14:19:32.408Z,9.430385
2023-05-20T14:20:31.510Z,9.430351
2023-05-20T14:21:31.457Z,9.430344
2023-05-20T14:22:31.316Z,9.430373
2023-05-20T14:23:31.268Z,9.430376
2023-05-20T14:24:31.391Z,9.430387
2023-05-20T14:25:31.220Z,9.430364
2023-05-20T14:26:31.264Z,9.430352
2023-05-20T14:27:32.191Z,9.430363
2023-05-20T14:28:31.938Z,9.430346
2023-05-20T14:29:31.360Z,9.430365
2023-05-20T14:30:31.178Z,9.430375
2023-05-20T14:31:31.262Z,9.430409
2023-05-20T14:32:31.208Z,9.430368
2023-05-20T14:33:31.112Z,9.430343
2023-05-20T14:34:31.104Z,9.430355
2023-05-20T14:35:31.160Z,9.430409
2023-05-20T14:36:31.086Z,9.430392
2023-05-20T14:37:31.052Z,9.430352
2023-05-20T14:38:31.133Z,9.430366
2023-05-20T14:39:31.087Z,9.430373
2023-05-20T14:40:32.280Z,9.430375
2023-05-20T14:41:31.049Z,9.430390
2023-05-20T14:42:31.178Z,9.430383
2023-05-20T14:43:31.020Z,9.430391
2023-05-20T14:44:32.616Z,9.430366
2023-05-20T14:45:31.088Z,9.430380
2023-05-20T14:46:31.343Z,9.430387
2023-05-20T14:47:31.037Z,9.430366
2023-05-20T14:48:31.057Z,9.430372
2023-05-20T14:49:31.044Z,9.430373
2023-05-20T14:50:30.973Z,9.430372
2023-05-20T14:51:31.008Z,9.430331
2023-05-20T14:52:30.966Z,9.430374
2023-05-20T14:53:30.892Z,9.430362
2023-05-20T14:54:31.086Z,9.430382
2023-05-20T14:55:30.987Z,9.430391
2023-05-20T14:56:30.994Z,9.430406
2023-05-20T14:57:30.921Z,9.430429
2023-05-20T14:58:31.277Z,9.430335
2023-05-20T14:59:30.859Z,9.430363
2023-05-20T15:00:30.891Z,9.430430
2023-05-20T15:01:30.872Z,9.430396
2023-05-20T15:02:31.291Z,9.430368
2023-05-20T15:03:30.922Z,9.430357
2023-05-20T15:04:30.839Z,9.430359
2023-05-20T15:05:30.742Z,9.430364
2023-05-20T15:06:30.817Z,9.430412
2023-05-20T15:07:33.268Z,9.430363
2023-05-20T15:08:30.930Z,9.430346
2023-05-20T15:09:31.026Z,9.430328
2023-05-20T15:10:33.629Z,9.430325
2023-05-20T15:11:30.742Z,9.430280
2023-05-20T15:12:30.846Z,9.430228
2023-05-20T15:13:30.806Z,9.430330
2023-05-20T15:14:30.749Z,9.430339
2023-05-20T15:15:31.897Z,9.430327
2023-05-20T15:16:30.680Z,9.430347
2023-05-20T15:17:30.695Z,9.430366
2023-05-20T15:18:30.613Z,9.430370
2023-05-20T15:19:30.816Z,9.430371
2023-05-20T15:20:30.675Z,9.430368
2023-05-20T15:21:30.601Z,9.430338
2023-05-20T15:22:30.612Z,9.430348
2023-05-20T15:23:30.934Z,9.430328
2023-05-20T15:24:30.552Z,9.430350
2023-05-20T15:25:30.538Z,9.430353
2023-05-20T15:26:30.912Z,9.430363
2023-05-20T15:27:30.595Z,9.430345
2023-05-20T15:28:30.668Z,9.430360
2023-05-20T15:29:30.495Z,9.430368
2023-05-20T15:30:30.563Z,9.430387
2023-05-20T15:31:30.521Z,9.430341
2023-05-20T15:32:32.103Z,9.430379
2023-05-20T15:33:30.505Z,9.430408
2023-05-20T15:34:30.429Z,9.430368
2023-05-20T15:35:30.438Z,9.430299
2023-05-20T15:36:30.616Z,9.430369
2023-05-20T15:37:30.417Z,9.430388
2023-05-20T15:38:30.451Z,9.430402
2023-05-20T15:39:30.414Z,9.430396
2023-05-20T15:40:30.377Z,9.430347
2023-05-20T15:41:30.386Z,9.430382
2023-05-20T15:42:30.340Z,9.430374
2023-05-20T15:43:30.315Z,9.430326
2023-05-20T15:44:30.545Z,9.430346
2023-05-20T15:45:30.296Z,9.430342
2023-05-20T15:46:32.413Z,9.430340
2023-05-20T15:47:30.451Z,9.430342
2023-05-20T15:48:30.404Z,9.430370
2023-05-20T15:49:31.356Z,9.430359
2023-05-20T15:50:30.233Z,9.430337
2023-05-20T15:51:30.260Z,9.430352
2023-05-20T15:52:30.326Z,9.430346
2023-05-20T15:53:31.209Z,9.430359
2023-05-20T15:54:30.233Z,9.430323
2023-05-20T15:56:02.797Z,9.430312
2023-05-20T15:56:30.306Z,9.430363
2023-05-20T15:57:31.214Z,9.430337
2023-05-20T15:58:30.244Z,9.430354
2023-05-20T15:59:30.271Z,9.430338
2023-05-20T16:00:30.233Z,9.430301
2023-05-20T16:01:30.410Z,9.430306
2023-05-20T16:02:30.378Z,9.430313
2023-05-20T16:03:30.220Z,9.430313
2023-05-20T16:04:30.302Z,9.430355
2023-05-20T16:05:30.140Z,9.430329
2023-05-20T16:06:30.130Z,9.430346
2023-05-20T16:07:30.063Z,9.430335
2023-05-20T16:08:30.094Z,9.430350
2023-05-20T16:09:30.239Z,9.430308
2023-05-20T16:10:30.083Z,9.430284
2023-05-20T16:11:30.044Z,9.430321
2023-05-20T16:12:30.097Z,9.430360
2023-05-20T16:13:30.105Z,9.430307
2023-05-20T16:14:30.014Z,9.430318
2023-05-20T16:15:30.036Z,9.430333
2023-05-20T16:16:29.995Z,9.430296
2023-05-20T16:17:29.992Z,9.430312
2023-05-20T16:18:29.940Z,9.430323
2023-05-20T16:19:29.998Z,9.430322
2023-05-20T16:20:29.992Z,9.430289
2023-05-20T16:21:29.957Z,9.430304
2023-05-20T16:22:29.892Z,9.430304
2023-05-20T16:23:29.901Z,9.430359
2023-05-20T16:24:30.713Z,9.430329
2023-05-20T16:25:29.865Z,9.430298
2023-05-20T16:26:29.854Z,9.430303
2023-05-20T16:27:29.866Z,9.430293
2023-05-20T16:28:29.837Z,9.430305
2023-05-20T16:29:29.825Z,9.430303
2023-05-20T16:30:29.830Z,9.430306
2023-05-20T16:31:29.811Z,9.430298
2023-05-20T16:32:29.790Z,9.430305
2023-05-20T16:33:29.770Z,9.430301
2023-05-20T16:34:29.789Z,9.430308
2023-05-20T16:35:29.760Z,9.430328
2023-05-20T16:36:29.740Z,9.430326
2023-05-20T16:37:29.791Z,9.430335
2023-05-20T16:38:29.709Z,9.430316
2023-05-20T16:39:29.741Z,9.430329
2023-05-20T16:40:29.677Z,9.430329
2023-05-20T16:41:29.657Z,9.430324
2023-05-20T16:42:29.674Z,9.430267
2023-05-20T16:43:29.738Z,9.430285
2023-05-20T16:44:29.652Z,9.430291
2023-05-20T16:45:29.755Z,9.430305
2023-05-20T16:46:29.629Z,9.430316
2023-05-20T16:47:29.658Z,9.430330
2023-05-20T16:48:29.685Z,9.430322
2023-05-20T16:49:29.577Z,9.430293
2023-05-20T16:50:29.576Z,9.430325
2023-05-20T16:51:29.585Z,9.430342
2023-05-20T16:52:29.661Z,9.430285
2023-05-20T16:53:29.539Z,9.430305
2023-05-20T16:54:30.348Z,9.430304
2023-05-20T16:55:29.528Z,9.430300
2023-05-20T16:56:29.528Z,9.430307
2023-05-20T16:57:29.536Z,9.430269
2023-05-20T16:58:29.511Z,9.430280
2023-05-20T16:59:29.673Z,9.430292
2023-05-20T17:00:29.510Z,9.430323
2023-05-20T17:01:31.398Z,9.430308
2023-05-20T17:02:30.153Z,9.430291
2023-05-20T17:03:29.470Z,9.430325
2023-05-20T17:04:29.540Z,9.430385
2023-05-20T17:05:30.227Z,9.430314
2023-05-20T17:06:29.409Z,9.430269
2023-05-20T17:07:29.528Z,9.430271
2023-05-20T17:08:29.366Z,9.430298
2023-05-20T17:09:29.374Z,9.430354
2023-05-20T17:10:29.348Z,9.430319
2023-05-20T17:11:29.319Z,9.430346
2023-05-20T17:12:29.347Z,9.430312
2023-05-20T17:13:29.319Z,9.430312
2023-05-20T17:14:29.302Z,9.430318
2023-05-20T17:16:03.432Z,9.430341
2023-05-20T17:16:29.344Z,9.430349
2023-05-20T17:17:29.280Z,9.430328
2023-05-20T17:18:29.274Z,9.430320
2023-05-20T17:19:29.245Z,9.430322
2023-05-20T17:20:29.250Z,9.430361
2023-05-20T17:21:29.350Z,9.430372
2023-05-20T17:22:29.268Z,9.430400
2023-05-20T17:23:29.214Z,9.430367
2023-05-20T17:24:29.371Z,9.430399
2023-05-20T17:25:29.196Z,9.430382
2023-05-20T17:26:29.181Z,9.430382
2023-05-20T17:27:29.197Z,9.430320
2023-05-20T17:28:29.125Z,9.430317
2023-05-20T17:29:29.146Z,9.430313
2023-05-20T17:30:29.169Z,9.430285
2023-05-20T17:31:29.132Z,9.430337
2023-05-20T17:32:29.215Z,9.430330
2023-05-20T17:33:29.222Z,9.430309
2023-05-20T17:34:29.230Z,9.430359
2023-05-20T17:35:29.073Z,9.430332
2023-05-20T17:36:29.067Z,9.430360
2023-05-20T17:37:29.139Z,9.430359
2023-05-20T17:38:29.043Z,9.430307
2023-05-20T17:39:29.012Z,9.430372
2023-05-20T17:40:29.089Z,9.430362
2023-05-20T17:41:28.993Z,9.430357
2023-05-20T17:42:29.091Z,9.430356
2023-05-20T17:43:29.777Z,9.430333
2023-05-20T17:44:28.974Z,9.430336
2023-05-20T17:45:28.955Z,9.430351
2023-05-20T17:46:29.014Z,9.430348
2023-05-20T17:47:28.981Z,9.430359
2023-05-20T17:48:28.951Z,9.430323
2023-05-20T17:49:28.954Z,9.430332
2023-05-20T17:50:28.923Z,9.430340
2023-05-20T17:51:29.778Z,9.430360
2023-05-20T17:52:29.794Z,9.430359
2023-05-20T17:53:28.899Z,9.430323
2023-05-20T17:54:28.873Z,9.430333
2023-05-20T17:55:28.845Z,9.430327
2023-05-20T17:56:28.850Z,9.430336
2023-05-20T17:57:28.870Z,9.430324
2023-05-20T17:58:28.811Z,9.430330
2023-05-20T17:59:28.857Z,9.430319
2023-05-20T18:00:28.798Z,9.430319
2023-05-20T18:01:28.850Z,9.430333
2023-05-20T18:02:28.843Z,9.430369
2023-05-20T18:03:28.816Z,9.430324
2023-05-20T18:04:28.736Z,9.430353
2023-05-20T18:05:28.892Z,9.430332
2023-05-20T18:06:28.791Z,9.430318
2023-05-20T18:07:28.745Z,9.430323
2023-05-20T18:08:28.727Z,9.430326
2023-05-20T18:09:28.672Z,9.430331
2023-05-20T18:10:28.780Z,9.430324
2023-05-20T18:11:28.889Z,9.430342
2023-05-20T18:12:28.767Z,9.430324
2023-05-20T18:13:28.686Z,9.430337
2023-05-20T18:14:28.844Z,9.430348
2023-05-20T18:15:28.665Z,9.430346
2023-05-20T18:16:28.691Z,9.430366
2023-05-20T18:17:30.829Z,9.430367
2023-05-20T18:18:28.660Z,9.430346
2023-05-20T18:19:28.729Z,9.430339
2023-05-20T18:20:28.587Z,9.430327